Time;durP1;ratioP1;P1;durP2;ratioP2;P2;SDS_P1;SDS_P2;PMS_P1;PMS_P2;Temp;Humidity;BMP_temperature;BMP_pressure;BME280_temperature;BME280_humidity;BME280_pressure;Samples;Min_cycle;Max_cycle;Signal;HPM_P1;HPM_P2
2022/05/21 00:02:38;;;;;;;7.38;4.07;;;;;;;12.81;100.00;100654.59;6270955;28;20042;-94
2022/05/21 00:05:40;;;;;;;7.35;4.60;;;;;;;12.83;100.00;100659.66;6262061;28;20041;-95
2022/05/21 00:08:43;;;;;;;5.43;3.90;;;;;;;12.85;100.00;100655.97;6277063;28;20110;-95
2022/05/21 00:11:45;;;;;;;4.13;3.60;;;;;;;12.90;100.00;100681.56;6258230;28;20033;-95
2022/05/21 00:14:47;;;;;;;4.80;3.33;;;;;;;12.96;100.00;100675.00;6269992;28;20111;-94
2022/05/21 00:17:50;;;;;;;3.90;3.38;;;;;;;12.89;100.00;100674.72;6281287;28;20037;-96
2022/05/21 00:20:52;;;;;;;5.63;3.88;;;;;;;12.82;100.00;100678.78;6263670;28;20037;-96
2022/05/21 00:23:54;;;;;;;5.82;3.42;;;;;;;12.91;100.00;100680.59;6248751;28;20578;-94
2022/05/21 00:26:56;;;;;;;3.50;2.90;;;;;;;12.89;100.00;100691.16;6251502;28;20051;-95
2022/05/21 00:29:58;;;;;;;5.22;3.45;;;;;;;12.92;100.00;100677.88;6260355;28;20037;-95
2022/05/21 00:33:00;;;;;;;5.47;3.78;;;;;;;12.90;100.00;100692.78;6253305;28;20052;-92
2022/05/21 00:36:03;;;;;;;3.78;3.25;;;;;;;12.95;100.00;100700.19;6275996;28;20048;-93
2022/05/21 00:39:05;;;;;;;4.20;3.63;;;;;;;12.91;100.00;100691.00;6271289;28;20133;-94
2022/05/21 00:42:07;;;;;;;3.67;3.15;;;;;;;12.96;100.00;100698.41;6256277;28;20045;-94
2022/05/21 00:45:10;;;;;;;5.10;3.35;;;;;;;13.00;100.00;100710.19;6245240;28;20094;-95
2022/05/21 00:48:12;;;;;;;2.92;2.63;;;;;;;12.99;100.00;100714.53;6267960;28;20041;-95
2022/05/21 00:51:22;;;;;;;3.40;3.10;;;;;;;12.94;100.00;100711.50;6245965;28;20068;-94
2022/05/21 00:54:28;;;;;;;5.07;3.33;;;;;;;12.87;100.00;100720.81;6268089;28;20097;-94
2022/05/21 00:57:38;;;;;;;3.80;3.17;;;;;;;12.84;100.00;100734.84;6251628;28;20227;-94
2022/05/21 01:00:41;;;;;;;3.78;3.25;;;;;;;12.84;100.00;100721.03;6263315;28;20049;-95
2022/05/21 01:03:44;;;;;;;3.35;2.90;;;;;;;12.71;100.00;100735.06;6246283;28;20090;-95
2022/05/21 01:06:46;;;;;;;5.00;3.90;;;;;;;12.53;100.00;100739.25;6223855;28;20629;-93
2022/05/21 01:09:54;;;;;;;4.50;4.10;;;;;;;12.57;100.00;100756.22;6264386;28;20037;-95
2022/05/21 01:12:57;;;;;;;4.20;3.80;;;;;;;12.56;100.00;100746.75;6261363;28;20044;-93
2022/05/21 01:16:01;;;;;;;3.80;3.42;;;;;;;12.59;100.00;100750.88;6243679;28;20057;-93
2022/05/21 01:19:09;;;;;;;4.53;3.45;;;;;;;12.49;100.00;100756.81;6262816;28;20553;-93
2022/05/21 01:22:11;;;;;;;4.93;3.40;;;;;;;12.50;100.00;100752.47;6246102;28;20620;-92
2022/05/21 01:25:20;;;;;;;5.28;3.53;;;;;;;12.47;100.00;100750.97;6221760;28;20049;-95
2022/05/21 01:28:24;;;;;;;4.70;3.72;;;;;;;12.42;100.00;100760.06;6275861;28;20048;-93
2022/05/21 01:31:26;;;;;;;4.53;3.88;;;;;;;12.13;100.00;100755.53;6258360;28;20048;-93
2022/05/21 01:34:28;;;;;;;4.60;3.75;;;;;;;12.06;100.00;100751.78;6264898;28;20055;-94
2022/05/21 01:37:31;;;;;;;3.47;3.17;;;;;;;11.93;100.00;100759.75;6263757;28;20494;-93
2022/05/21 01:40:33;;;;;;;6.13;3.67;;;;;;;11.78;100.00;100753.97;6282850;28;20036;-94
2022/05/21 01:46:57;;;;;;;5.00;3.53;;;;;;;11.70;100.00;100756.38;6260535;28;20044;-95
2022/05/21 01:49:59;;;;;;;5.57;3.70;;;;;;;11.64;100.00;100754.25;6252633;28;20045;-91
2022/05/21 01:53:01;;;;;;;5.85;3.17;;;;;;;11.53;100.00;100768.09;6263505;28;20122;-92
2022/05/21 01:56:04;;;;;;;7.40;3.78;;;;;;;11.65;100.00;100755.91;6248777;28;20512;-93
2022/05/21 01:59:06;;;;;;;5.90;4.00;;;;;;;11.56;100.00;100764.44;6264618;28;20041;-92
2022/05/21 02:02:08;;;;;;;5.78;3.83;;;;;;;11.49;100.00;100765.84;6257964;28;20047;-90
2022/05/21 02:05:10;;;;;;;6.10;4.20;;;;;;;11.57;100.00;100761.69;6242399;28;20052;-92
2022/05/21 02:08:14;;;;;;;6.10;4.70;;;;;;;11.53;100.00;100775.03;6257623;28;20047;-93
2022/05/21 02:11:16;;;;;;;6.00;4.78;;;;;;;11.60;100.00;100764.06;6241567;28;20041;-91
2022/05/21 02:14:18;;;;;;;5.85;4.95;;;;;;;11.44;100.00;100766.22;6263484;28;20044;-91
2022/05/21 02:17:26;;;;;;;7.18;5.20;;;;;;;11.40;100.00;100772.56;6248491;28;20160;-92
2022/05/21 02:20:27;;;;;;;6.63;5.32;;;;;;;11.27;100.00;100774.47;6270864;28;20439;-92
2022/05/21 02:23:29;;;;;;;6.10;4.97;;;;;;;11.36;100.00;100781.53;6257430;28;20142;-93
2022/05/21 02:26:39;;;;;;;9.50;6.68;;;;;;;11.29;100.00;100788.97;6247259;28;20044;-94
2022/05/21 02:29:41;;;;;;;7.97;5.53;;;;;;;11.34;100.00;100786.84;6265197;28;20044;-92
2022/05/21 02:32:43;;;;;;;6.28;5.53;;;;;;;11.38;100.00;100780.47;6270044;28;20041;-92
2022/05/21 02:35:45;;;;;;;7.13;5.35;;;;;;;11.31;100.00;100788.84;6266092;28;20048;-93
2022/05/21 02:42:43;;;;;;;7.05;5.15;;;;;;;11.34;100.00;100791.22;6268975;28;20126;-93
2022/05/21 02:45:30;;;;;;;6.97;5.15;;;;;;;11.37;100.00;100783.19;6267086;28;20123;-92
2022/05/21 02:48:33;;;;;;;9.48;5.68;;;;;;;11.31;100.00;100783.69;6269330;28;20175;-93
2022/05/21 02:51:34;;;;;;;7.05;5.22;;;;;;;11.27;100.00;100783.06;6260622;28;21159;-92
2022/05/21 02:54:37;;;;;;;5.43;4.85;;;;;;;11.25;100.00;100787.53;6240907;28;20352;-92
2022/05/21 02:57:40;;;;;;;8.35;5.55;;;;;;;11.25;100.00;100789.31;6261865;28;20033;-93
2022/05/21 03:00:44;;;;;;;6.15;5.18;;;;;;;11.23;100.00;100798.97;6260732;28;20056;-92
2022/05/21 03:03:45;;;;;;;7.78;4.97;;;;;;;11.15;100.00;100797.78;6241593;28;20048;-93
2022/05/21 03:06:48;;;;;;;6.10;4.80;;;;;;;11.16;100.00;100796.88;6259608;28;20037;-93
2022/05/21 03:13:11;;;;;;;6.30;4.22;;;;;;;11.09;100.00;100797.47;6245704;28;20049;-93
2022/05/21 03:16:13;;;;;;;6.35;4.90;;;;;;;11.06;100.00;100801.13;6246626;28;20048;-93
2022/05/21 03:19:15;;;;;;;9.45;5.78;;;;;;;10.93;100.00;100795.19;6250227;28;20045;-92
2022/05/21 03:22:17;;;;;;;7.15;5.07;;;;;;;10.96;100.00;100795.81;6252138;28;20126;-93
2022/05/21 03:25:19;;;;;;;8.98;5.65;;;;;;;11.03;100.00;100797.91;6247784;28;20068;-95
2022/05/21 03:28:22;;;;;;;7.70;5.00;;;;;;;10.93;100.00;100796.06;6252944;28;21070;-92
2022/05/21 03:31:25;;;;;;;7.72;5.72;;;;;;;10.87;100.00;100799.09;6264968;28;20043;-92
2022/05/21 03:34:27;;;;;;;11.70;6.00;;;;;;;10.87;100.00;100803.44;6258697;28;20051;-93
2022/05/21 03:37:29;;;;;;;9.75;6.05;;;;;;;10.88;100.00;100792.13;6255537;28;20048;-92
2022/05/21 03:40:31;;;;;;;7.47;5.47;;;;;;;10.93;100.00;100796.06;6225000;28;20577;-93
2022/05/21 03:43:34;;;;;;;9.55;6.75;;;;;;;10.89;100.00;100809.34;6252912;28;20034;-92
2022/05/21 03:46:38;;;;;;;10.43;5.78;;;;;;;10.86;100.00;100791.47;6250143;28;20534;-94
2022/05/21 03:49:40;;;;;;;9.70;6.65;;;;;;;10.81;100.00;100794.38;6255978;28;20121;-91
2022/05/21 03:52:42;;;;;;;9.15;7.07;;;;;;;10.91;100.00;100792.75;6252238;28;20597;-92
2022/05/21 03:55:45;;;;;;;10.27;6.90;;;;;;;10.82;100.00;100792.63;6238919;28;20566;-93
2022/05/21 03:58:47;;;;;;;9.90;6.70;;;;;;;11.03;100.00;100787.56;6255012;28;20226;-92
2022/05/21 04:01:48;;;;;;;10.35;7.20;;;;;;;11.05;100.00;100785.69;6249960;28;20037;-92
2022/05/21 04:04:51;;;;;;;12.77;7.22;;;;;;;11.15;100.00;100784.84;6256637;28;20043;-93
2022/05/21 04:07:55;;;;;;;10.73;7.18;;;;;;;11.35;100.00;100780.72;6221455;28;20059;-94
2022/05/21 04:10:56;;;;;;;9.65;7.32;;;;;;;11.58;100.00;100783.28;6237272;28;20115;-92
2022/05/21 04:13:59;;;;;;;12.40;8.35;;;;;;;11.66;100.00;100778.31;6261652;28;20572;-92
2022/05/21 04:17:04;;;;;;;12.07;8.65;;;;;;;11.80;100.00;100774.59;6261758;28;20372;-92
2022/05/21 04:20:09;;;;;;;13.68;8.88;;;;;;;11.75;100.00;100763.75;6236497;28;20056;-93
2022/05/21 04:23:11;;;;;;;14.18;8.75;;;;;;;11.86;100.00;100763.75;6251704;28;20052;-93
2022/05/21 04:26:13;;;;;;;13.68;8.93;;;;;;;12.01;100.00;100777.28;6239196;28;20597;-92
2022/05/21 04:29:16;;;;;;;13.05;9.38;;;;;;;12.13;100.00;100757.31;6242895;28;20061;-92
2022/05/21 04:32:19;;;;;;;15.05;10.50;;;;;;;12.19;100.00;100761.97;6254651;28;20044;-92
2022/05/21 04:35:22;;;;;;;16.38;10.70;;;;;;;12.18;100.00;100755.16;6250489;28;20056;-91
2022/05/21 04:38:25;;;;;;;15.13;10.63;;;;;;;12.33;100.00;100763.44;6252396;28;20433;-93
2022/05/21 04:41:28;;;;;;;16.50;10.98;;;;;;;12.32;100.00;100759.19;6247303;28;20479;-92
2022/05/21 04:44:35;;;;;;;15.40;11.10;;;;;;;12.22;100.00;100762.56;6233764;28;20328;-91
2022/05/21 04:47:38;;;;;;;15.23;9.93;;;;;;;12.22;100.00;100777.28;6246039;28;20038;-92
2022/05/21 04:50:39;;;;;;;19.50;10.55;;;;;;;12.11;100.00;100772.16;6257903;28;20044;-92
2022/05/21 04:53:41;;;;;;;18.30;11.38;;;;;;;12.06;100.00;100759.56;6228447;28;20105;-93
2022/05/21 04:56:44;;;;;;;17.30;11.38;;;;;;;12.15;100.00;100764.00;6246764;28;20639;-92
2022/05/21 04:59:46;;;;;;;19.08;12.20;;;;;;;12.28;100.00;100762.03;6236341;28;20041;-92
2022/05/21 05:02:54;;;;;;;16.70;11.73;;;;;;;12.26;100.00;100756.16;6247522;28;20061;-93
2022/05/21 05:05:56;;;;;;;19.40;12.65;;;;;;;12.19;100.00;100764.56;6250633;28;20121;-91
2022/05/21 05:08:59;;;;;;;18.20;12.98;;;;;;;12.12;100.00;100772.03;6229643;28;20033;-92
2022/05/21 05:12:02;;;;;;;20.00;13.70;;;;;;;12.14;100.00;100769.31;6251005;28;20029;-92
2022/05/21 05:15:04;;;;;;;20.40;13.15;;;;;;;12.15;100.00;100764.00;6253040;28;20052;-92
2022/05/21 05:18:12;;;;;;;19.20;14.38;;;;;;;12.31;100.00;100773.13;6240154;28;20150;-92
2022/05/21 05:21:14;;;;;;;22.05;14.98;;;;;;;12.55;100.00;100776.28;6249286;28;20046;-93
2022/05/21 05:24:16;;;;;;;23.00;15.85;;;;;;;12.87;100.00;100780.56;6251623;28;20037;-94
2022/05/21 05:27:18;;;;;;;23.40;16.98;;;;;;;13.22;100.00;100794.94;6249068;28;20057;-94
2022/05/21 05:30:23;;;;;;;24.23;16.55;;;;;;;13.45;100.00;100788.59;6233705;28;20049;-93
2022/05/21 05:33:26;;;;;;;25.27;16.90;;;;;;;13.75;100.00;100797.25;6262853;28;20040;-96
2022/05/21 05:36:28;;;;;;;23.27;17.15;;;;;;;14.02;100.00;100795.78;6249349;28;20052;-93
2022/05/21 05:39:31;;;;;;;27.40;17.42;;;;;;;14.25;100.00;100797.13;6250817;28;20045;-92
2022/05/21 05:42:35;;;;;;;24.05;16.83;;;;;;;14.17;100.00;100792.63;6228097;28;20593;-95
2022/05/21 05:45:38;;;;;;;25.60;18.30;;;;;;;13.88;100.00;100797.81;6259256;28;20120;-93
2022/05/21 05:48:40;;;;;;;25.40;17.90;;;;;;;13.75;100.00;100802.47;6259616;28;20053;-93
2022/05/21 05:51:42;;;;;;;22.55;17.70;;;;;;;13.67;100.00;100800.53;6249192;28;20167;-93
2022/05/21 05:54:44;;;;;;;27.20;18.25;;;;;;;13.67;100.00;100800.53;6258314;28;20369;-93
2022/05/21 05:57:52;;;;;;;26.80;20.02;;;;;;;13.65;100.00;100810.25;6241377;28;20049;-94
2022/05/21 06:00:54;;;;;;;27.90;18.08;;;;;;;13.50;100.00;100796.81;6241488;28;20049;-93
2022/05/21 06:03:57;;;;;;;27.00;19.70;;;;;;;13.49;100.00;100797.78;6240131;28;20506;-93
2022/05/21 06:06:58;;;;;;;25.05;17.70;;;;;;;13.41;100.00;100808.00;6231206;28;20045;-93
2022/05/21 06:10:03;;;;;;;26.35;17.65;;;;;;;13.26;100.00;100801.50;6246725;28;20041;-92
2022/05/21 06:13:10;;;;;;;25.75;18.40;;;;;;;13.30;100.00;100808.13;6244423;28;20037;-93
2022/05/21 06:16:14;;;;;;;23.92;18.45;;;;;;;13.26;100.00;100807.50;6254548;28;20041;-92
2022/05/21 06:19:15;;;;;;;24.30;17.52;;;;;;;13.32;100.00;100806.22;6241198;28;20060;-92
2022/05/21 06:22:18;;;;;;;25.45;17.65;;;;;;;13.28;100.00;100825.63;6242980;28;20048;-92
2022/05/21 06:25:23;;;;;;;27.17;17.95;;;;;;;13.40;100.00;100813.34;6251950;28;20616;-94
2022/05/21 06:28:28;;;;;;;22.38;17.60;;;;;;;13.68;100.00;100816.97;6251944;28;20053;-94
2022/05/21 06:31:30;;;;;;;26.38;17.95;;;;;;;13.89;100.00;100815.09;6239451;28;20053;-92
2022/05/21 06:34:35;;;;;;;21.00;15.77;;;;;;;13.93;100.00;100813.03;6260483;28;20041;-94
2022/05/21 06:37:37;;;;;;;27.15;16.48;;;;;;;14.32;100.00;100800.00;6263305;28;20120;-93
2022/05/21 06:40:40;;;;;;;22.02;16.20;;;;;;;14.62;100.00;100806.84;6258281;28;20040;-93
2022/05/21 06:43:43;;;;;;;18.75;15.05;;;;;;;14.74;100.00;100817.94;6254346;28;20044;-92
2022/05/21 06:46:47;;;;;;;23.70;14.80;;;;;;;14.81;100.00;100817.22;6257268;28;20149;-93
2022/05/21 06:49:58;;;;;;;17.67;14.05;;;;;;;14.52;100.00;100817.25;6248180;28;20072;-94
2022/05/21 06:53:00;;;;;;;19.40;14.35;;;;;;;14.41;100.00;100815.63;6238308;28;20045;-92
2022/05/21 06:56:14;;;;;;;18.23;13.00;;;;;;;14.21;100.00;100817.44;6254526;28;20037;-92
2022/05/21 06:59:17;;;;;;;16.08;13.07;;;;;;;14.06;100.00;100829.22;6252142;28;20049;-94
2022/05/21 07:02:22;;;;;;;19.33;12.32;;;;;;;14.01;100.00;100826.19;6255368;28;20048;-93
2022/05/21 07:08:45;;;;;;;15.05;11.52;;;;;;;14.09;100.00;100823.72;6240492;28;20110;-95
2022/05/21 07:11:49;;;;;;;19.45;11.15;;;;;;;14.26;100.00;100832.66;6243685;28;20171;-93
2022/05/21 07:14:51;;;;;;;19.13;11.60;;;;;;;14.50;100.00;100820.97;6229633;28;20076;-94
2022/05/21 07:17:59;;;;;;;16.40;10.35;;;;;;;14.72;100.00;100841.53;6248326;28;20037;-94
2022/05/21 07:21:01;;;;;;;15.25;10.57;;;;;;;14.84;100.00;100834.38;6249510;28;20048;-92
2022/05/21 07:24:04;;;;;;;14.80;10.90;;;;;;;14.99;100.00;100840.78;6236230;28;20042;-92
2022/05/21 07:27:06;;;;;;;15.70;9.63;;;;;;;15.15;100.00;100831.50;6246486;28;20045;-96
2022/05/21 07:30:09;;;;;;;16.80;9.77;;;;;;;15.07;100.00;100853.91;6261347;28;20060;-96
2022/05/21 07:33:14;;;;;;;14.25;9.57;;;;;;;15.07;100.00;100842.66;6247375;28;20044;-93
2022/05/21 07:36:16;;;;;;;14.98;9.70;;;;;;;15.13;100.00;100849.94;6261618;28;20049;-94
2022/05/21 07:39:18;;;;;;;11.65;9.18;;;;;;;15.23;100.00;100844.69;6256102;28;20565;-94
2022/05/21 07:42:21;;;;;;;17.75;10.07;;;;;;;15.14;100.00;100843.72;6239887;28;20490;-92
2022/05/21 07:45:23;;;;;;;16.38;8.45;;;;;;;14.95;100.00;100851.63;6234287;28;20391;-95
2022/05/21 07:48:26;;;;;;;15.88;8.48;;;;;;;14.99;100.00;100845.16;6234939;28;20057;-93
2022/05/21 07:51:30;;;;;;;11.85;7.93;;;;;;;15.06;100.00;100838.41;6251084;28;20381;-94
2022/05/21 07:54:31;;;;;;;13.45;8.10;;;;;;;15.02;100.00;100837.88;6250734;28;20041;-95
2022/05/21 07:57:34;;;;;;;12.70;8.63;;;;;;;15.30;100.00;100845.72;6246388;28;20050;-95
2022/05/21 08:00:37;;;;;;;13.95;7.93;;;;;;;15.65;100.00;100836.34;6250656;28;20576;-93
2022/05/21 08:03:39;;;;;;;12.20;7.95;;;;;;;15.86;100.00;100852.59;6247110;28;20033;-95
2022/05/21 08:06:41;;;;;;;11.27;7.97;;;;;;;15.98;100.00;100842.78;6247982;28;20049;-93
2022/05/21 08:09:43;;;;;;;11.15;7.75;;;;;;;16.19;100.00;100842.47;6218009;28;20048;-95
2022/05/21 08:12:45;;;;;;;11.65;7.30;;;;;;;16.16;99.44;100827.09;6252297;28;20060;-95
2022/05/21 08:15:47;;;;;;;11.15;7.00;;;;;;;15.80;100.00;100837.53;6233309;28;20059;-95
2022/05/21 08:18:49;;;;;;;13.07;6.65;;;;;;;15.64;100.00;100832.91;6252653;28;20537;-93
2022/05/21 08:21:51;;;;;;;12.38;6.70;;;;;;;15.68;100.00;100831.66;6261998;28;20037;-94
2022/05/21 08:28:16;;;;;;;10.68;6.32;;;;;;;16.02;100.00;100828.44;6149118;28;20073;-94
2022/05/21 08:31:18;;;;;;;9.57;5.97;;;;;;;16.41;99.25;100849.00;6149757;28;20513;-93
2022/05/21 08:34:21;;;;;;;9.68;5.90;;;;;;;16.55;98.76;100831.97;6151708;28;20058;-96
2022/05/21 08:37:23;;;;;;;10.63;5.30;;;;;;;16.64;95.19;100838.88;6147242;28;20046;-94
2022/05/21 08:40:37;;;;;;;12.80;5.82;;;;;;;16.57;96.20;100845.69;6162679;28;20062;-95
2022/05/21 08:44:07;;;;;;;8.95;4.88;;;;;;;16.65;94.67;100840.53;6166347;28;20050;-87
2022/05/21 08:47:23;;;;;;;19.52;6.00;;;;;;;16.91;94.03;100844.97;6148925;28;20050;-95
2022/05/21 08:50:28;;;;;;;9.10;5.22;;;;;;;16.94;92.50;100845.50;6155420;28;20047;-96
2022/05/21 08:53:32;;;;;;;8.98;5.05;;;;;;;16.87;95.33;100839.25;6163357;28;20054;-96
2022/05/21 08:56:36;;;;;;;10.15;5.25;;;;;;;17.05;96.17;100846.22;6173307;28;20050;-92
2022/05/21 08:59:45;;;;;;;9.00;4.35;;;;;;;17.04;91.62;100861.06;6153946;28;20590;-92
2022/05/21 09:02:48;;;;;;;8.32;5.00;;;;;;;16.70;93.01;100845.31;6165553;28;20185;-95
2022/05/21 09:05:57;;;;;;;7.68;4.60;;;;;;;16.35;95.35;100852.25;6230752;28;20139;-95
2022/05/21 09:09:18;;;;;;;8.25;4.90;;;;;;;16.11;96.20;100847.63;6260260;28;20403;-96
2022/05/21 09:12:23;;;;;;;9.45;5.43;;;;;;;16.32;97.80;100850.75;6259522;28;20491;-93
2022/05/21 09:18:49;;;;;;;9.55;3.50;;;;;;;16.03;95.77;100853.59;6263102;28;20084;-96
2022/05/21 09:22:03;;;;;;;9.73;4.53;;;;;;;16.25;95.71;100856.72;6263269;28;20091;-96
2022/05/21 09:25:18;;;;;;;6.13;4.22;;;;;;;16.36;96.58;100849.47;6247309;28;20049;-93
2022/05/21 09:28:22;;;;;;;6.72;4.22;;;;;;;16.44;94.83;100846.09;6256193;28;20045;-96
2022/05/21 09:31:31;;;;;;;6.13;3.50;;;;;;;16.82;94.58;100849.34;6257348;28;20116;-95
2022/05/21 09:34:36;;;;;;;6.45;4.32;;;;;;;17.21;92.60;100852.31;6242428;28;20083;-94
2022/05/21 09:37:39;;;;;;;6.45;3.72;;;;;;;17.25;87.83;100850.22;6266594;28;20576;-95
2022/05/21 09:40:41;;;;;;;6.97;3.33;;;;;;;16.94;83.63;100871.66;6264975;28;20158;-92
2022/05/21 09:47:25;;;;;;;7.03;3.70;;;;;;;15.96;98.83;100859.56;6249509;28;20048;-94
2022/05/21 09:50:27;;;;;;;9.07;4.13;;;;;;;15.21;100.00;100880.50;6258774;28;20601;-92
2022/05/21 09:53:36;;;;;;;9.07;4.35;;;;;;;14.79;100.00;100875.66;6243472;28;20407;-91
2022/05/21 09:56:48;;;;;;;6.03;3.65;;;;;;;14.86;100.00;100877.56;6262501;28;20043;-91
2022/05/21 10:00:26;;;;;;;7.38;4.72;;;;;;;15.03;100.00;100875.19;6245092;28;20586;-90
2022/05/21 10:03:36;;;;;;;9.55;4.63;;;;;;;15.31;100.00;100880.47;6255513;28;20049;-90
2022/05/21 10:06:43;;;;;;;8.30;4.40;;;;;;;15.81;100.00;100880.13;6272495;28;20040;-91
2022/05/21 10:13:19;;;;;;;6.32;2.70;;;;;;;16.06;90.20;100894.25;6263950;28;20413;-91
2022/05/21 10:16:46;;;;;;;6.97;3.33;;;;;;;15.77;91.05;100891.81;6252864;28;20491;-92
2022/05/21 10:20:17;;;;;;;3.63;2.72;;;;;;;15.71;92.41;100888.81;6236957;28;20056;-92
2022/05/21 10:23:34;;;;;;;8.90;3.10;;;;;;;15.96;93.23;100878.66;6259329;28;20041;-93
2022/05/21 10:26:55;;;;;;;7.47;4.13;;;;;;;16.63;92.54;100883.50;6259459;28;20065;-94
2022/05/21 10:30:12;;;;;;;9.68;2.70;;;;;;;17.39;87.19;100883.66;6255005;28;20052;-91
2022/05/21 10:33:40;;;;;;;4.82;3.00;;;;;;;18.02;86.28;100871.09;6261757;28;20044;-92
2022/05/21 10:37:18;;;;;;;8.35;3.30;;;;;;;18.19;78.76;100887.69;6259445;28;20048;-92
2022/05/21 10:40:25;;;;;;;9.32;2.50;;;;;;;17.85;81.29;100886.78;6241763;28;20052;-92
2022/05/21 10:43:42;;;;;;;5.75;2.63;;;;;;;17.44;82.99;100901.50;6261205;28;20145;-93
2022/05/21 10:47:03;;;;;;;8.13;3.20;;;;;;;17.03;88.18;100890.81;6258171;28;20052;-91
2022/05/21 10:50:36;;;;;;;4.95;2.45;;;;;;;16.79;88.54;100888.84;6261540;28;20059;-92
2022/05/21 10:53:38;;;;;;;5.13;2.47;;;;;;;16.80;87.36;100893.13;6253184;28;20070;-92
2022/05/21 10:56:59;;;;;;;6.15;2.67;;;;;;;17.26;87.78;100885.88;6257954;28;20650;-93
2022/05/21 11:00:15;;;;;;;5.53;3.03;;;;;;;17.76;88.86;100882.50;6254143;28;20037;-95
2022/05/21 11:03:54;;;;;;;6.68;4.03;;;;;;;18.29;88.67;100885.72;6252973;28;20049;-93
2022/05/21 11:07:34;;;;;;;6.15;3.25;;;;;;;18.84;81.38;100879.00;6265901;28;20536;-94
2022/05/21 11:11:01;;;;;;;6.30;3.65;;;;;;;19.09;80.21;100888.47;6195836;28;20102;-92
2022/05/21 11:14:21;;;;;;;7.85;3.78;;;;;;;19.06;77.92;100883.56;6188671;28;20084;-94
2022/05/21 11:17:37;;;;;;;5.60;3.10;;;;;;;18.90;80.82;100892.25;6190220;28;20198;-93
2022/05/21 11:20:46;;;;;;;8.52;3.42;;;;;;;18.70;80.28;100899.63;6203737;28;20241;-92
2022/05/21 11:24:03;;;;;;;7.97;3.85;;;;;;;18.66;80.61;100898.34;6183117;28;20041;-92
2022/05/21 11:27:12;;;;;;;8.30;3.80;;;;;;;19.17;78.58;100886.81;6206383;28;20120;-93
2022/05/21 11:30:20;;;;;;;6.28;4.00;;;;;;;18.88;76.76;100899.50;6200824;28;20227;-90
2022/05/21 11:41:24;;;;;;;8.52;3.63;;;;;;;19.20;75.00;100892.53;6210663;28;20061;-87
2022/05/21 11:47:48;;;;;;;6.80;3.95;;;;;;;19.35;77.25;100900.50;6250920;28;20049;-92
2022/05/21 11:51:25;;;;;;;6.30;3.33;;;;;;;18.85;78.86;100893.75;6266478;28;20051;-90
2022/05/21 11:54:54;;;;;;;11.32;4.80;;;;;;;18.27;79.33;100906.84;6266986;28;20041;-90
2022/05/21 11:58:05;;;;;;;7.25;3.53;;;;;;;17.79;80.51;100903.13;6266485;28;20446;-88
2022/05/21 12:01:07;;;;;;;9.55;3.85;;;;;;;17.49;85.75;100888.78;6270371;28;20407;-90
2022/05/21 12:04:54;;;;;;;7.88;4.15;;;;;;;17.65;84.37;100899.28;6251794;28;20049;-89
2022/05/21 12:08:08;;;;;;;9.98;5.25;;;;;;;17.96;84.57;100903.16;6256659;28;20060;-90
2022/05/21 12:11:42;;;;;;;7.93;3.40;;;;;;;18.48;76.15;100905.53;6267210;28;20098;-90
2022/05/21 12:15:16;;;;;;;6.30;3.85;;;;;;;18.30;78.13;100895.22;6252983;28;20380;-88
2022/05/21 12:18:53;;;;;;;7.40;4.07;;;;;;;18.27;81.38;100898.97;6257018;28;20045;-88
2022/05/21 12:21:55;;;;;;;5.13;3.47;;;;;;;18.36;79.61;100912.06;6247960;28;20041;-89
2022/05/21 12:24:57;;;;;;;8.35;3.53;;;;;;;18.17;80.87;100906.16;6254339;28;20048;-89
2022/05/21 12:28:02;;;;;;;5.88;4.13;;;;;;;18.09;86.68;100911.41;6261821;28;20041;-93
2022/05/21 12:31:18;;;;;;;6.18;3.13;;;;;;;18.24;77.80;100909.78;6248794;28;20041;-90
2022/05/21 12:34:39;;;;;;;4.82;2.60;;;;;;;18.82;74.08;100915.06;6259502;28;20049;-88
2022/05/21 12:37:49;;;;;;;4.53;2.08;;;;;;;19.17;73.98;100908.59;6259948;28;20041;-90
2022/05/21 12:41:15;;;;;;;5.05;2.35;;;;;;;19.82;68.29;100919.88;6247807;28;20167;-89
2022/05/21 12:44:47;;;;;;;6.00;2.35;;;;;;;19.94;66.44;100908.00;6245226;28;20127;-91
2022/05/21 12:47:49;;;;;;;5.70;2.30;;;;;;;19.47;65.38;100920.16;6259332;28;20502;-89
2022/05/21 12:50:52;;;;;;;7.45;2.60;;;;;;;18.82;69.19;100899.34;6257894;28;20045;-91
2022/05/21 12:53:55;;;;;;;7.18;3.10;;;;;;;18.41;74.29;100896.69;6267231;28;20373;-89
2022/05/21 12:57:10;;;;;;;9.65;3.17;;;;;;;17.85;78.45;100906.91;6258137;28;20414;-90
2022/05/21 13:00:14;;;;;;;6.45;3.20;;;;;;;17.42;81.58;100927.00;6258097;28;21241;-89
2022/05/21 13:03:18;;;;;;;6.40;3.55;;;;;;;16.92;85.84;100927.69;6269437;28;20494;-87
2022/05/21 13:06:24;;;;;;;6.15;3.88;;;;;;;16.68;90.73;100918.66;6259217;28;20612;-88
2022/05/21 13:09:26;;;;;;;8.70;3.63;;;;;;;16.77;87.05;100932.63;6252307;28;20464;-88
2022/05/21 13:12:40;;;;;;;5.20;2.92;;;;;;;17.97;82.91;100918.75;6267483;28;20029;-90
2022/05/21 13:15:45;;;;;;;9.10;4.10;;;;;;;18.95;72.96;100925.88;6251183;28;20051;-91
2022/05/21 13:19:08;;;;;;;6.45;3.30;;;;;;;18.81;71.25;100914.25;6265194;28;20033;-91
2022/05/21 13:22:25;;;;;;;4.72;2.80;;;;;;;18.51;72.89;100918.34;6249400;28;20045;-91
2022/05/21 13:25:27;;;;;;;8.60;2.90;;;;;;;18.09;75.37;100929.75;6259709;28;20045;-89
2022/05/21 13:28:29;;;;;;;4.80;2.15;;;;;;;17.90;76.73;100924.78;6262523;28;20777;-90
2022/05/21 13:31:31;;;;;;;4.95;2.10;;;;;;;17.63;71.87;100918.75;6241621;28;20106;-90
2022/05/21 13:34:35;;;;;;;5.35;2.25;;;;;;;17.49;73.21;100925.41;6229455;28;20051;-90
2022/05/21 13:37:44;;;;;;;4.32;1.90;;;;;;;17.42;75.38;100925.22;6243485;28;20172;-90
2022/05/21 13:40:55;;;;;;;6.80;1.95;;;;;;;17.53;76.83;100929.34;6233646;28;20514;-91
2022/05/21 13:43:58;;;;;;;6.05;1.90;;;;;;;17.82;74.53;100922.97;6251808;28;20044;-90
2022/05/21 13:47:04;;;;;;;3.85;2.03;;;;;;;17.93;72.73;100925.25;6247931;28;20037;-88
2022/05/21 13:50:06;;;;;;;4.38;1.83;;;;;;;17.79;74.97;100955.47;6260381;28;20500;-90
2022/05/21 13:53:11;;;;;;;4.38;1.25;;;;;;;17.56;70.35;100944.72;6266529;28;20093;-90
2022/05/21 13:56:40;;;;;;;3.47;1.30;;;;;;;17.56;71.63;100951.78;6267815;28;20059;-89
2022/05/21 13:59:56;;;;;;;4.80;1.35;;;;;;;17.74;70.20;100952.53;6240597;28;20494;-90
2022/05/21 14:03:20;;;;;;;6.65;1.55;;;;;;;18.04;68.72;100958.22;6262582;28;20570;-91
2022/05/21 14:06:23;;;;;;;3.58;1.20;;;;;;;18.36;67.38;100951.41;6257716;28;20521;-91
2022/05/21 14:09:27;;;;;;;4.60;1.60;;;;;;;19.01;63.79;100961.94;6242534;28;20053;-89
2022/05/21 14:12:48;;;;;;;4.20;1.67;;;;;;;18.71;64.00;100960.78;6261634;28;20051;-90
2022/05/21 14:16:06;;;;;;;2.67;1.20;;;;;;;18.28;65.84;100950.44;6244744;28;20068;-90
2022/05/21 14:19:20;;;;;;;6.53;1.88;;;;;;;18.40;65.39;100945.66;6269963;28;20044;-90
2022/05/21 14:22:22;;;;;;;3.08;1.20;;;;;;;18.60;66.39;100956.66;6259072;28;20036;-89
2022/05/21 14:25:31;;;;;;;4.88;1.40;;;;;;;18.63;63.84;100939.78;6270368;28;20037;-90
2022/05/21 14:28:34;;;;;;;4.15;1.15;;;;;;;18.56;63.47;100955.38;6259081;28;20102;-90
2022/05/21 14:31:40;;;;;;;2.45;1.20;;;;;;;18.72;64.76;100936.19;6259522;28;20438;-90
2022/05/21 14:34:44;;;;;;;3.42;1.00;;;;;;;19.00;65.75;100936.69;6255506;28;20041;-88
2022/05/21 14:37:49;;;;;;;5.38;3.28;;;;;;;19.10;69.16;100934.69;6269312;28;20489;-90
2022/05/21 14:40:57;;;;;;;8.13;3.08;;;;;;;19.18;73.20;100933.03;6276099;28;20088;-89
2022/05/21 14:44:04;;;;;;;7.47;2.92;;;;;;;19.22;71.39;100947.47;6255866;28;20116;-89
2022/05/21 14:53:56;;;;;;;4.30;1.08;;;;;;;19.25;64.08;100949.75;6266257;28;20044;-88
2022/05/21 14:56:58;;;;;;;4.38;1.27;;;;;;;19.24;60.23;100956.00;6250574;28;20040;-90
2022/05/21 15:00:00;;;;;;;2.80;1.02;;;;;;;18.94;62.05;100953.91;6258371;28;20406;-89
2022/05/21 15:03:03;;;;;;;2.40;0.95;;;;;;;18.75;62.92;100948.16;6255947;28;20879;-89
2022/05/21 15:06:06;;;;;;;3.58;1.23;;;;;;;18.62;62.79;100943.41;6262284;28;20091;-90